sensor_id;sensor_type;location;lat;lon;timestamp;pressure;altitude;pressure_sealevel;temperature;humidity
51081;BME280;37130;55.670;37.596;2022-12-19T00:01:55;100582.53;;;-10.29;95.29
51081;BME280;37130;55.670;37.596;2022-12-19T00:04:22;100547.41;;;-10.48;94.62
51081;BME280;37130;55.670;37.596;2022-12-19T00:06:50;100530.38;;;-10.64;95.02
51081;BME280;37130;55.670;37.596;2022-12-19T00:09:17;100575.19;;;-10.22;95.20
51081;BME280;37130;55.670;37.596;2022-12-19T00:11:46;100449.31;;;-10.98;95.40
51081;BME280;37130;55.670;37.596;2022-12-19T00:14:15;100588.72;;;-10.08;94.26
51081;BME280;37130;55.670;37.596;2022-12-19T00:16:42;100582.91;;;-10.04;95.25
51081;BME280;37130;55.670;37.596;2022-12-19T00:19:10;100588.38;;;-9.98;95.87
51081;BME280;37130;55.670;37.596;2022-12-19T00:21:38;100585.63;;;-10.01;95.57
51081;BME280;37130;55.670;37.596;2022-12-19T00:24:08;100571.50;;;-10.10;95.38
51081;BME280;37130;55.670;37.596;2022-12-19T00:26:46;100590.03;;;-9.98;94.41
51081;BME280;37130;55.670;37.596;2022-12-19T00:29:15;100588.91;;;-10.03;95.43
51081;BME280;37130;55.670;37.596;2022-12-19T00:31:44;100589.59;;;-10.07;95.38
51081;BME280;37130;55.670;37.596;2022-12-19T00:34:13;100597.06;;;-9.94;95.90
51081;BME280;37130;55.670;37.596;2022-12-19T00:36:41;100559.88;;;-10.04;95.75
51081;BME280;37130;55.670;37.596;2022-12-19T00:39:08;100529.97;;;-10.21;96.00
51081;BME280;37130;55.670;37.596;2022-12-19T00:41:38;100598.28;;;-9.70;96.76
51081;BME280;37130;55.670;37.596;2022-12-19T00:44:11;100600.94;;;-9.68;95.80
51081;BME280;37130;55.670;37.596;2022-12-19T00:46:40;100596.94;;;-9.63;95.98
51081;BME280;37130;55.670;37.596;2022-12-19T00:49:07;100588.84;;;-9.71;95.64
51081;BME280;37130;55.670;37.596;2022-12-19T00:51:36;100590.47;;;-9.55;96.22
51081;BME280;37130;55.670;37.596;2022-12-19T00:54:08;100584.03;;;-9.46;96.11
51081;BME280;37130;55.670;37.596;2022-12-19T00:56:36;100586.75;;;-9.43;96.08
51081;BME280;37130;55.670;37.596;2022-12-19T00:59:08;100587.22;;;-9.34;96.43
51081;BME280;37130;55.670;37.596;2022-12-19T01:01:39;100578.19;;;-9.26;97.41
51081;BME280;37130;55.670;37.596;2022-12-19T01:04:12;100590.66;;;-9.16;97.06
51081;BME280;37130;55.670;37.596;2022-12-19T01:06:58;100584.19;;;-9.08;97.15
51081;BME280;37130;55.670;37.596;2022-12-19T01:09:33;100584.09;;;-9.09;97.69
51081;BME280;37130;55.670;37.596;2022-12-19T01:12:03;100574.56;;;-9.12;97.34
51081;BME280;37130;55.670;37.596;2022-12-19T01:14:53;100572.22;;;-9.07;97.62
51081;BME280;37130;55.670;37.596;2022-12-19T01:17:33;100576.72;;;-9.03;97.86
51081;BME280;37130;55.670;37.596;2022-12-19T01:20:13;100566.72;;;-8.97;97.71
51081;BME280;37130;55.670;37.596;2022-12-19T01:22:42;100596.91;;;-8.91;98.50
51081;BME280;37130;55.670;37.596;2022-12-19T01:25:12;100578.44;;;-8.84;98.30
51081;BME280;37130;55.670;37.596;2022-12-19T01:27:40;100575.00;;;-8.85;97.58
51081;BME280;37130;55.670;37.596;2022-12-19T01:30:08;100574.16;;;-8.84;98.40
51081;BME280;37130;55.670;37.596;2022-12-19T01:32:37;100572.78;;;-8.77;98.05
51081;BME280;37130;55.670;37.596;2022-12-19T01:35:05;100574.78;;;-8.70;97.94
51081;BME280;37130;55.670;37.596;2022-12-19T01:37:37;100568.03;;;-8.68;98.14
51081;BME280;37130;55.670;37.596;2022-12-19T01:40:05;100569.66;;;-8.70;98.09
51081;BME280;37130;55.670;37.596;2022-12-19T01:42:35;100563.72;;;-8.69;97.72
51081;BME280;37130;55.670;37.596;2022-12-19T01:50:33;100559.34;;;-8.71;98.63
51081;BME280;37130;55.670;37.596;2022-12-19T01:53:09;100486.81;;;-9.05;98.75
51081;BME280;37130;55.670;37.596;2022-12-19T01:55:39;100558.59;;;-8.49;99.11
51081;BME280;37130;55.670;37.596;2022-12-19T01:58:09;100562.03;;;-8.49;98.81
51081;BME280;37130;55.670;37.596;2022-12-19T02:00:42;100573.53;;;-8.41;99.08
51081;BME280;37130;55.670;37.596;2022-12-19T02:03:31;100507.91;;;-8.92;98.61
51081;BME280;37130;55.670;37.596;2022-12-19T02:06:00;100567.50;;;-8.41;98.55
51081;BME280;37130;55.670;37.596;2022-12-19T02:08:29;100570.97;;;-8.41;98.76
51081;BME280;37130;55.670;37.596;2022-12-19T02:10:59;100560.69;;;-8.41;99.19
51081;BME280;37130;55.670;37.596;2022-12-19T02:13:28;100565.00;;;-8.40;99.07
51081;BME280;37130;55.670;37.596;2022-12-19T02:16:12;100513.13;;;-8.71;98.81
51081;BME280;37130;55.670;37.596;2022-12-19T02:21:42;100556.25;;;-8.24;99.36
51081;BME280;37130;55.670;37.596;2022-12-19T02:38:19;100525.66;;;-7.98;100.00
51081;BME280;37130;55.670;37.596;2022-12-19T02:40:55;100528.41;;;-7.94;100.00
51081;BME280;37130;55.670;37.596;2022-12-19T02:43:27;100421.72;;;-8.47;99.62
51081;BME280;37130;55.670;37.596;2022-12-19T02:45:56;100514.06;;;-7.88;100.00
51081;BME280;37130;55.670;37.596;2022-12-19T02:48:26;100518.28;;;-7.89;100.00
51081;BME280;37130;55.670;37.596;2022-12-19T02:50:53;100511.03;;;-7.78;100.00
51081;BME280;37130;55.670;37.596;2022-12-19T02:53:21;100504.31;;;-7.75;100.00
51081;BME280;37130;55.670;37.596;2022-12-19T02:56:13;100506.06;;;-7.74;100.00
51081;BME280;37130;55.670;37.596;2022-12-19T02:58:56;100498.47;;;-7.71;100.00
51081;BME280;37130;55.670;37.596;2022-12-19T03:07:36;100500.25;;;-7.69;100.00
51081;BME280;37130;55.670;37.596;2022-12-19T03:10:36;100494.97;;;-7.52;100.00
51081;BME280;37130;55.670;37.596;2022-12-19T03:13:34;100499.69;;;-7.40;100.00
51081;BME280;37130;55.670;37.596;2022-12-19T03:16:01;100496.44;;;-7.36;100.00
51081;BME280;37130;55.670;37.596;2022-12-19T03:18:31;100494.91;;;-7.31;100.00
51081;BME280;37130;55.670;37.596;2022-12-19T03:21:08;100495.06;;;-7.26;100.00
51081;BME280;37130;55.670;37.596;2022-12-19T03:23:38;100488.41;;;-7.21;100.00
51081;BME280;37130;55.670;37.596;2022-12-19T03:26:13;100482.50;;;-7.18;100.00
51081;BME280;37130;55.670;37.596;2022-12-19T03:28:52;100475.91;;;-7.12;100.00
51081;BME280;37130;55.670;37.596;2022-12-19T03:31:26;100421.13;;;-7.54;100.00
51081;BME280;37130;55.670;37.596;2022-12-19T03:34:05;100494.84;;;-7.10;100.00
51081;BME280;37130;55.670;37.596;2022-12-19T03:36:44;100494.13;;;-7.06;100.00
51081;BME280;37130;55.670;37.596;2022-12-19T03:39:13;100403.28;;;-7.50;100.00
51081;BME280;37130;55.670;37.596;2022-12-19T03:41:42;100476.28;;;-7.01;100.00
51081;BME280;37130;55.670;37.596;2022-12-19T03:44:32;100472.00;;;-7.00;100.00
51081;BME280;37130;55.670;37.596;2022-12-19T03:47:16;100469.44;;;-7.00;100.00
51081;BME280;37130;55.670;37.596;2022-12-19T03:49:46;100462.66;;;-6.98;100.00
51081;BME280;37130;55.670;37.596;2022-12-19T03:54:58;100452.38;;;-6.98;100.00
51081;BME280;37130;55.670;37.596;2022-12-19T03:57:33;100451.53;;;-6.97;100.00
51081;BME280;37130;55.670;37.596;2022-12-19T04:00:10;100448.19;;;-6.95;100.00
51081;BME280;37130;55.670;37.596;2022-12-19T04:02:43;100364.06;;;-7.44;100.00
51081;BME280;37130;55.670;37.596;2022-12-19T04:05:17;100365.84;;;-7.41;100.00
51081;BME280;37130;55.670;37.596;2022-12-19T04:07:46;100430.94;;;-6.97;100.00
51081;BME280;37130;55.670;37.596;2022-12-19T04:10:16;100453.44;;;-6.92;100.00
51081;BME280;37130;55.670;37.596;2022-12-19T04:12:49;100457.81;;;-6.89;100.00
51081;BME280;37130;55.670;37.596;2022-12-19T04:15:28;100460.53;;;-6.86;100.00
51081;BME280;37130;55.670;37.596;2022-12-19T04:17:58;100396.25;;;-7.31;100.00
51081;BME280;37130;55.670;37.596;2022-12-19T04:20:28;100446.72;;;-7.12;100.00
51081;BME280;37130;55.670;37.596;2022-12-19T04:23:04;100455.88;;;-7.19;99.61
51081;BME280;37130;55.670;37.596;2022-12-19T04:25:38;100389.91;;;-7.63;97.98
51081;BME280;37130;55.670;37.596;2022-12-19T04:28:17;100428.19;;;-7.48;97.40
51081;BME280;37130;55.670;37.596;2022-12-19T04:30:47;100440.88;;;-7.53;98.02
51081;BME280;37130;55.670;37.596;2022-12-19T04:33:15;100429.53;;;-7.58;96.95
51081;BME280;37130;55.670;37.596;2022-12-19T04:35:43;100330.28;;;-8.21;97.14
51081;BME280;37130;55.670;37.596;2022-12-19T04:38:10;100437.19;;;-7.60;98.10
51081;BME280;37130;55.670;37.596;2022-12-19T04:40:38;100336.44;;;-8.17;98.23
51081;BME280;37130;55.670;37.596;2022-12-19T04:43:08;100446.38;;;-7.44;98.90
51081;BME280;37130;55.670;37.596;2022-12-19T04:45:36;100460.28;;;-7.39;99.15
51081;BME280;37130;55.670;37.596;2022-12-19T04:48:04;100378.09;;;-7.81;98.83
51081;BME280;37130;55.670;37.596;2022-12-19T04:50:34;100452.25;;;-7.24;99.11
51081;BME280;37130;55.670;37.596;2022-12-19T04:53:02;100456.88;;;-7.15;99.30
51081;BME280;37130;55.670;37.596;2022-12-19T04:55:29;100450.75;;;-7.19;100.00
51081;BME280;37130;55.670;37.596;2022-12-19T04:57:57;100391.34;;;-7.47;100.00
51081;BME280;37130;55.670;37.596;2022-12-19T05:00:24;100449.50;;;-7.06;100.00
51081;BME280;37130;55.670;37.596;2022-12-19T05:02:52;100426.88;;;-7.15;100.00
51081;BME280;37130;55.670;37.596;2022-12-19T05:05:20;100448.16;;;-6.96;100.00
51081;BME280;37130;55.670;37.596;2022-12-19T05:07:48;100454.34;;;-6.91;100.00
51081;BME280;37130;55.670;37.596;2022-12-19T05:10:15;100371.06;;;-7.40;100.00
51081;BME280;37130;55.670;37.596;2022-12-19T05:12:43;100444.75;;;-6.95;100.00
51081;BME280;37130;55.670;37.596;2022-12-19T05:15:10;100456.38;;;-6.82;100.00
51081;BME280;37130;55.670;37.596;2022-12-19T05:17:38;100455.53;;;-6.81;100.00
51081;BME280;37130;55.670;37.596;2022-12-19T05:20:06;100443.38;;;-6.86;100.00
51081;BME280;37130;55.670;37.596;2022-12-19T05:22:34;100456.44;;;-6.81;100.00
51081;BME280;37130;55.670;37.596;2022-12-19T05:25:02;100447.00;;;-6.80;100.00
51081;BME280;37130;55.670;37.596;2022-12-19T05:27:29;100457.19;;;-6.84;100.00
51081;BME280;37130;55.670;37.596;2022-12-19T05:29:57;100399.28;;;-7.19;100.00
51081;BME280;37130;55.670;37.596;2022-12-19T05:32:24;100443.56;;;-6.81;100.00
51081;BME280;37130;55.670;37.596;2022-12-19T05:34:51;100443.69;;;-6.76;100.00
51081;BME280;37130;55.670;37.596;2022-12-19T05:37:19;100291.13;;;-7.68;100.00
51081;BME280;37130;55.670;37.596;2022-12-19T05:39:46;100451.38;;;-6.78;100.00
51081;BME280;37130;55.670;37.596;2022-12-19T05:42:14;100444.75;;;-6.71;100.00
51081;BME280;37130;55.670;37.596;2022-12-19T05:44:41;100444.84;;;-6.68;100.00
51081;BME280;37130;55.670;37.596;2022-12-19T05:47:09;100440.63;;;-6.66;100.00
51081;BME280;37130;55.670;37.596;2022-12-19T05:49:36;100445.00;;;-6.64;100.00
51081;BME280;37130;55.670;37.596;2022-12-19T05:52:05;100446.00;;;-6.60;100.00
51081;BME280;37130;55.670;37.596;2022-12-19T05:54:32;100434.09;;;-6.56;100.00
51081;BME280;37130;55.670;37.596;2022-12-19T05:56:59;100439.38;;;-6.53;100.00
51081;BME280;37130;55.670;37.596;2022-12-19T05:59:27;100443.69;;;-6.52;100.00
51081;BME280;37130;55.670;37.596;2022-12-19T06:01:55;100439.25;;;-6.56;100.00
51081;BME280;37130;55.670;37.596;2022-12-19T06:04:23;100439.47;;;-6.50;100.00
51081;BME280;37130;55.670;37.596;2022-12-19T06:06:50;100340.63;;;-7.03;100.00
51081;BME280;37130;55.670;37.596;2022-12-19T06:09:18;100427.59;;;-6.47;100.00
51081;BME280;37130;55.670;37.596;2022-12-19T06:11:46;100424.88;;;-6.50;100.00
51081;BME280;37130;55.670;37.596;2022-12-19T06:14:14;100429.47;;;-6.41;100.00
51081;BME280;37130;55.670;37.596;2022-12-19T06:16:41;100431.31;;;-6.37;100.00
51081;BME280;37130;55.670;37.596;2022-12-19T06:19:09;100448.69;;;-6.31;100.00
51081;BME280;37130;55.670;37.596;2022-12-19T06:21:36;100456.59;;;-6.27;100.00
51081;BME280;37130;55.670;37.596;2022-12-19T06:24:14;100445.59;;;-6.21;100.00
51081;BME280;37130;55.670;37.596;2022-12-19T06:26:42;100449.00;;;-6.22;100.00
51081;BME280;37130;55.670;37.596;2022-12-19T06:29:09;100396.34;;;-6.56;100.00
51081;BME280;37130;55.670;37.596;2022-12-19T06:31:37;100457.88;;;-6.14;100.00
51081;BME280;37130;55.670;37.596;2022-12-19T06:34:05;100464.13;;;-6.07;100.00
51081;BME280;37130;55.670;37.596;2022-12-19T06:36:33;100459.94;;;-6.04;100.00
51081;BME280;37130;55.670;37.596;2022-12-19T06:39:00;100453.03;;;-6.05;100.00
51081;BME280;37130;55.670;37.596;2022-12-19T06:41:29;100456.41;;;-6.06;100.00
51081;BME280;37130;55.670;37.596;2022-12-19T06:44:17;100448.13;;;-5.97;100.00
51081;BME280;37130;55.670;37.596;2022-12-19T06:46:44;100424.56;;;-6.08;100.00
51081;BME280;37130;55.670;37.596;2022-12-19T06:49:12;100382.16;;;-6.43;100.00
51081;BME280;37130;55.670;37.596;2022-12-19T06:51:40;100447.34;;;-5.94;100.00
51081;BME280;37130;55.670;37.596;2022-12-19T06:54:12;100386.19;;;-6.26;100.00
51081;BME280;37130;55.670;37.596;2022-12-19T06:56:41;100448.28;;;-5.91;100.00
51081;BME280;37130;55.670;37.596;2022-12-19T06:59:14;100341.72;;;-6.46;100.00
51081;BME280;37130;55.670;37.596;2022-12-19T07:04:14;100436.66;;;-5.78;100.00
51081;BME280;37130;55.670;37.596;2022-12-19T07:06:42;100433.16;;;-5.80;100.00
51081;BME280;37130;55.670;37.596;2022-12-19T07:09:15;100427.38;;;-5.73;100.00
51081;BME280;37130;55.670;37.596;2022-12-19T07:11:44;100367.94;;;-6.05;100.00
51081;BME280;37130;55.670;37.596;2022-12-19T07:14:11;100370.72;;;-5.99;100.00
51081;BME280;37130;55.670;37.596;2022-12-19T07:16:39;100412.38;;;-5.58;100.00
51081;BME280;37130;55.670;37.596;2022-12-19T07:19:08;100414.41;;;-5.46;100.00
51081;BME280;37130;55.670;37.596;2022-12-19T07:21:37;100418.84;;;-5.42;100.00
51081;BME280;37130;55.670;37.596;2022-12-19T07:24:06;100434.28;;;-5.43;100.00
51081;BME280;37130;55.670;37.596;2022-12-19T07:26:34;100419.59;;;-5.46;100.00
51081;BME280;37130;55.670;37.596;2022-12-19T07:29:03;100436.09;;;-5.41;100.00
51081;BME280;37130;55.670;37.596;2022-12-19T07:31:31;100428.50;;;-5.35;100.00
51081;BME280;37130;55.670;37.596;2022-12-19T07:33:58;100437.16;;;-5.34;100.00
51081;BME280;37130;55.670;37.596;2022-12-19T07:36:26;100416.28;;;-5.42;100.00
51081;BME280;37130;55.670;37.596;2022-12-19T07:38:54;100445.00;;;-5.31;100.00
51081;BME280;37130;55.670;37.596;2022-12-19T07:41:21;100463.06;;;-5.31;100.00
51081;BME280;37130;55.670;37.596;2022-12-19T07:43:49;100378.19;;;-5.78;100.00
51081;BME280;37130;55.670;37.596;2022-12-19T07:46:16;100464.16;;;-5.23;100.00
51081;BME280;37130;55.670;37.596;2022-12-19T07:48:44;100363.75;;;-5.73;100.00
51081;BME280;37130;55.670;37.596;2022-12-19T07:51:11;100460.66;;;-5.25;100.00
51081;BME280;37130;55.670;37.596;2022-12-19T07:53:39;100456.41;;;-5.23;100.00
51081;BME280;37130;55.670;37.596;2022-12-19T07:56:07;100376.97;;;-5.62;100.00
51081;BME280;37130;55.670;37.596;2022-12-19T07:58:35;100447.88;;;-5.20;100.00
51081;BME280;37130;55.670;37.596;2022-12-19T08:01:02;100440.38;;;-5.11;100.00
51081;BME280;37130;55.670;37.596;2022-12-19T08:03:30;100435.28;;;-5.10;100.00
51081;BME280;37130;55.670;37.596;2022-12-19T08:06:03;100433.66;;;-5.06;100.00
51081;BME280;37130;55.670;37.596;2022-12-19T08:08:31;100432.06;;;-5.01;100.00
51081;BME280;37130;55.670;37.596;2022-12-19T08:11:07;100421.81;;;-4.99;100.00
51081;BME280;37130;55.670;37.596;2022-12-19T08:13:35;100344.59;;;-5.51;100.00
51081;BME280;37130;55.670;37.596;2022-12-19T08:16:12;100433.16;;;-4.94;100.00
51081;BME280;37130;55.670;37.596;2022-12-19T08:18:40;100416.72;;;-4.96;100.00
51081;BME280;37130;55.670;37.596;2022-12-19T08:21:08;100358.44;;;-5.18;100.00
51081;BME280;37130;55.670;37.596;2022-12-19T08:23:36;100431.41;;;-4.64;100.00
51081;BME280;37130;55.670;37.596;2022-12-19T08:26:11;100420.06;;;-4.69;100.00
51081;BME280;37130;55.670;37.596;2022-12-19T08:28:39;100418.31;;;-4.70;100.00
51081;BME280;37130;55.670;37.596;2022-12-19T08:31:12;100358.53;;;-5.14;100.00
51081;BME280;37130;55.670;37.596;2022-12-19T08:33:40;100419.19;;;-4.69;100.00
51081;BME280;37130;55.670;37.596;2022-12-19T08:36:10;100417.69;;;-4.61;100.00
51081;BME280;37130;55.670;37.596;2022-12-19T08:38:38;100399.34;;;-4.70;100.00
51081;BME280;37130;55.670;37.596;2022-12-19T08:41:06;100410.09;;;-4.55;100.00
51081;BME280;37130;55.670;37.596;2022-12-19T08:43:34;100410.31;;;-4.47;100.00
51081;BME280;37130;55.670;37.596;2022-12-19T08:46:01;100305.22;;;-5.13;100.00
51081;BME280;37130;55.670;37.596;2022-12-19T08:48:30;100420.56;;;-4.50;100.00
51081;BME280;37130;55.670;37.596;2022-12-19T08:51:01;100414.47;;;-4.52;100.00
51081;BME280;37130;55.670;37.596;2022-12-19T08:53:30;100414.69;;;-4.43;100.00
51081;BME280;37130;55.670;37.596;2022-12-19T08:56:05;100415.59;;;-4.43;100.00
51081;BME280;37130;55.670;37.596;2022-12-19T08:58:34;100422.38;;;-4.46;100.00
51081;BME280;37130;55.670;37.596;2022-12-19T09:01:04;100425.63;;;-4.53;100.00
51081;BME280;37130;55.670;37.596;2022-12-19T09:03:32;100401.34;;;-4.60;100.00
51081;BME280;37130;55.670;37.596;2022-12-19T09:06:19;100416.47;;;-4.42;100.00
51081;BME280;37130;55.670;37.596;2022-12-19T09:08:47;100401.94;;;-4.37;100.00
51081;BME280;37130;55.670;37.596;2022-12-19T09:11:17;100407.06;;;-4.38;100.00
51081;BME280;37130;55.670;37.596;2022-12-19T09:13:46;100408.06;;;-4.33;100.00
51081;BME280;37130;55.670;37.596;2022-12-19T09:16:19;100404.75;;;-4.28;100.00
51081;BME280;37130;55.670;37.596;2022-12-19T09:18:51;100377.69;;;-4.42;100.00
51081;BME280;37130;55.670;37.596;2022-12-19T09:21:20;100413.56;;;-4.20;100.00
51081;BME280;37130;55.670;37.596;2022-12-19T09:23:50;100407.50;;;-4.22;100.00
51081;BME280;37130;55.670;37.596;2022-12-19T09:26:20;100411.91;;;-4.18;100.00
51081;BME280;37130;55.670;37.596;2022-12-19T09:28:49;100412.81;;;-4.15;100.00
51081;BME280;37130;55.670;37.596;2022-12-19T09:31:20;100409.38;;;-4.16;100.00
51081;BME280;37130;55.670;37.596;2022-12-19T09:33:47;100411.97;;;-4.14;100.00
51081;BME280;37130;55.670;37.596;2022-12-19T09:36:18;100406.84;;;-4.13;100.00
51081;BME280;37130;55.670;37.596;2022-12-19T09:38:46;100409.38;;;-4.16;100.00
51081;BME280;37130;55.670;37.596;2022-12-19T09:46:48;100404.53;;;-4.02;100.00
51081;BME280;37130;55.670;37.596;2022-12-19T09:49:41;100410.63;;;-4.00;100.00
51081;BME280;37130;55.670;37.596;2022-12-19T09:52:29;100412.22;;;-4.05;100.00
51081;BME280;37130;55.670;37.596;2022-12-19T09:55:17;100397.56;;;-4.05;100.00
51081;BME280;37130;55.670;37.596;2022-12-19T09:57:51;100408.03;;;-4.00;100.00
51081;BME280;37130;55.670;37.596;2022-12-19T10:00:21;100406.44;;;-3.93;100.00
51081;BME280;37130;55.670;37.596;2022-12-19T10:02:55;100410.03;;;-3.88;100.00
51081;BME280;37130;55.670;37.596;2022-12-19T10:08:32;100342.28;;;-4.45;100.00
51081;BME280;37130;55.670;37.596;2022-12-19T10:20:17;100410.75;;;-3.94;100.00
51081;BME280;37130;55.670;37.596;2022-12-19T10:31:15;100409.97;;;-3.91;100.00
51081;BME280;37130;55.670;37.596;2022-12-19T10:34:16;100410.75;;;-3.94;100.00
51081;BME280;37130;55.670;37.596;2022-12-19T10:36:48;100410.81;;;-3.91;100.00
51081;BME280;37130;55.670;37.596;2022-12-19T10:45:34;100400.28;;;-3.99;100.00
51081;BME280;37130;55.670;37.596;2022-12-19T10:48:08;100409.09;;;-3.90;100.00
51081;BME280;37130;55.670;37.596;2022-12-19T10:50:40;100315.03;;;-4.32;100.00
51081;BME280;37130;55.670;37.596;2022-12-19T10:53:08;100400.84;;;-3.76;100.00
51081;BME280;37130;55.670;37.596;2022-12-19T10:55:48;100410.28;;;-3.78;100.00
51081;BME280;37130;55.670;37.596;2022-12-19T11:01:04;100350.63;;;-4.22;100.00
51081;BME280;37130;55.670;37.596;2022-12-19T11:03:35;100407.50;;;-3.85;100.00
51081;BME280;37130;55.670;37.596;2022-12-19T11:06:05;100413.47;;;-3.88;100.00
51081;BME280;37130;55.670;37.596;2022-12-19T11:08:35;100416.03;;;-3.89;100.00
51081;BME280;37130;55.670;37.596;2022-12-19T11:13:50;100414.47;;;-3.83;100.00
51081;BME280;37130;55.670;37.596;2022-12-19T11:16:38;100410.19;;;-3.82;100.00
51081;BME280;37130;55.670;37.596;2022-12-19T11:19:31;100418.66;;;-3.88;100.00
51081;BME280;37130;55.670;37.596;2022-12-19T11:22:24;100411.69;;;-3.90;100.00
51081;BME280;37130;55.670;37.596;2022-12-19T11:25:18;100376.56;;;-4.19;100.00
51081;BME280;37130;55.670;37.596;2022-12-19T11:28:17;100417.91;;;-3.84;100.00
51081;BME280;37130;55.670;37.596;2022-12-19T11:31:08;100422.28;;;-3.81;100.00
51081;BME280;37130;55.670;37.596;2022-12-19T11:34:06;100427.38;;;-3.84;100.00
51081;BME280;37130;55.670;37.596;2022-12-19T11:36:59;100424.00;;;-3.82;100.00
51081;BME280;37130;55.670;37.596;2022-12-19T11:39:36;100434.34;;;-3.82;100.00
51081;BME280;37130;55.670;37.596;2022-12-19T11:42:30;100429.19;;;-3.80;100.00
51081;BME280;37130;55.670;37.596;2022-12-19T11:45:13;100439.63;;;-3.77;100.00
51081;BME280;37130;55.670;37.596;2022-12-19T11:47:52;100438.75;;;-3.78;100.00
51081;BME280;37130;55.670;37.596;2022-12-19T11:50:25;100438.84;;;-3.73;100.00
51081;BME280;37130;55.670;37.596;2022-12-19T11:53:17;100431.81;;;-3.79;100.00
51081;BME280;37130;55.670;37.596;2022-12-19T11:58:17;100442.31;;;-3.72;100.00
51081;BME280;37130;55.670;37.596;2022-12-19T12:00:57;100432.75;;;-3.75;100.00
51081;BME280;37130;55.670;37.596;2022-12-19T12:03:43;100450.06;;;-3.72;100.00
51081;BME280;37130;55.670;37.596;2022-12-19T12:06:32;100452.72;;;-3.71;100.00
51081;BME280;37130;55.670;37.596;2022-12-19T12:09:16;100443.22;;;-3.70;100.00
51081;BME280;37130;55.670;37.596;2022-12-19T12:12:27;100448.44;;;-3.69;100.00
51081;BME280;37130;55.670;37.596;2022-12-19T12:18:38;100446.91;;;-3.61;100.00
51081;BME280;37130;55.670;37.596;2022-12-19T12:21:44;100448.69;;;-3.58;100.00
51081;BME280;37130;55.670;37.596;2022-12-19T12:24:54;100459.00;;;-3.61;100.00
51081;BME280;37130;55.670;37.596;2022-12-19T12:42:59;100469.41;;;-3.58;100.00
51081;BME280;37130;55.670;37.596;2022-12-19T12:45:40;100484.09;;;-3.57;100.00
51081;BME280;37130;55.670;37.596;2022-12-19T12:50:58;100497.75;;;-3.26;100.00
51081;BME280;37130;55.670;37.596;2022-12-19T12:53:33;100429.47;;;-3.68;100.00
51081;BME280;37130;55.670;37.596;2022-12-19T12:56:03;100493.13;;;-3.40;100.00
51081;BME280;37130;55.670;37.596;2022-12-19T13:01:36;100494.75;;;-3.45;100.00
51081;BME280;37130;55.670;37.596;2022-12-19T13:06:59;100485.22;;;-3.46;100.00
51081;BME280;37130;55.670;37.596;2022-12-19T13:09:30;100497.28;;;-3.46;100.00
51081;BME280;37130;55.670;37.596;2022-12-19T13:12:09;100502.56;;;-3.42;100.00
51081;BME280;37130;55.670;37.596;2022-12-19T13:30:29;100522.16;;;-3.17;100.00
51081;BME280;37130;55.670;37.596;2022-12-19T13:38:24;100520.50;;;-3.13;100.00
51081;BME280;37130;55.670;37.596;2022-12-19T13:41:29;100513.53;;;-3.16;100.00
51081;BME280;37130;55.670;37.596;2022-12-19T13:44:25;100523.09;;;-3.13;100.00
51081;BME280;37130;55.670;37.596;2022-12-19T13:46:53;100471.56;;;-3.40;100.00
51081;BME280;37130;55.670;37.596;2022-12-19T13:49:32;100517.97;;;-3.10;100.00
51081;BME280;37130;55.670;37.596;2022-12-19T13:52:03;100424.25;;;-3.69;100.00
51081;BME280;37130;55.670;37.596;2022-12-19T13:54:36;100413.09;;;-3.67;100.00
51081;BME280;37130;55.670;37.596;2022-12-19T13:57:23;100537.13;;;-3.03;100.00
51081;BME280;37130;55.670;37.596;2022-12-19T13:59:53;100528.63;;;-2.98;100.00
51081;BME280;37130;55.670;37.596;2022-12-19T14:02:34;100549.34;;;-2.98;100.00
51081;BME280;37130;55.670;37.596;2022-12-19T14:05:26;100545.00;;;-2.99;100.00
51081;BME280;37130;55.670;37.596;2022-12-19T14:08:20;100438.19;;;-3.64;100.00
51081;BME280;37130;55.670;37.596;2022-12-19T14:10:49;100552.88;;;-2.96;100.00
51081;BME280;37130;55.670;37.596;2022-12-19T14:13:46;100547.69;;;-2.96;100.00
51081;BME280;37130;55.670;37.596;2022-12-19T14:16:45;100547.75;;;-2.91;100.00
51081;BME280;37130;55.670;37.596;2022-12-19T14:19:38;100543.44;;;-2.92;100.00
51081;BME280;37130;55.670;37.596;2022-12-19T14:25:00;100553.00;;;-2.90;100.00
51081;BME280;37130;55.670;37.596;2022-12-19T14:27:55;100553.06;;;-2.87;100.00
51081;BME280;37130;55.670;37.596;2022-12-19T14:30:52;100554.72;;;-2.89;100.00
51081;BME280;37130;55.670;37.596;2022-12-19T14:33:30;100473.41;;;-3.35;100.00
51081;BME280;37130;55.670;37.596;2022-12-19T14:36:19;100559.72;;;-2.98;100.00
51081;BME280;37130;55.670;37.596;2022-12-19T14:38:53;100475.13;;;-3.35;100.00
51081;BME280;37130;55.670;37.596;2022-12-19T14:41:44;100555.66;;;-2.87;100.00
51081;BME280;37130;55.670;37.596;2022-12-19T14:44:53;100553.06;;;-2.87;100.00
51081;BME280;37130;55.670;37.596;2022-12-19T14:47:41;100539.19;;;-2.89;100.00
51081;BME280;37130;55.670;37.596;2022-12-19T14:50:30;100563.53;;;-2.82;100.00
51081;BME280;37130;55.670;37.596;2022-12-19T14:53:20;100558.41;;;-2.79;100.00
51081;BME280;37130;55.670;37.596;2022-12-19T14:56:13;100554.06;;;-2.80;100.00
51081;BME280;37130;55.670;37.596;2022-12-19T14:59:02;100553.22;;;-2.79;100.00
51081;BME280;37130;55.670;37.596;2022-12-19T15:01:32;100552.41;;;-2.76;100.00
51081;BME280;37130;55.670;37.596;2022-12-19T15:04:03;100562.84;;;-2.73;100.00
51081;BME280;37130;55.670;37.596;2022-12-19T15:06:57;100548.97;;;-2.75;100.00
51081;BME280;37130;55.670;37.596;2022-12-19T15:09:48;100564.63;;;-2.72;100.00
51081;BME280;37130;55.670;37.596;2022-12-19T15:12:55;100574.13;;;-2.71;100.00
51081;BME280;37130;55.670;37.596;2022-12-19T15:16:03;100560.22;;;-2.75;100.00